Friday, July 1, 2016, 10:02 PM EDT

KPHF, Williamsburg International Airport

Location: Newport News, VA, United States Lat: 37.133
Local Time: 10:02 PM EDT ( 2:02 GMT) Lon: -76.5
Time Zone: US/Eastern Elev: 42 ft

Show me the last for .
Show Decoded

2016-07-01 21:54 METAR KPHF 020154Z AUTO 20010KT 9SM -RA FEW015 FEW041 SCT110 23/21 A2994 RMK AO2
                 LTG DSNT N AND W RAB49 SLP137 P0000 T02330211 =
2016-07-01 20:54 METAR KPHF 020054Z AUTO 17008KT 10SM SCT055 SCT090 24/21 A2992 RMK AO2 LTG DSNT
                 SE SLP132 T02390211 =
2016-07-01 19:54 METAR KPHF 012354Z AUTO 18007KT 10SM SCT044 25/22 A2992 RMK AO2 LTG DSNT SE AND
                 S SLP129 60011 T02500217 10306 20228 55003 =
2016-07-01 18:54 METAR KPHF 012254Z AUTO 15008KT 10SM FEW050 FEW070 25/22 A2991 RMK AO2 LTG DSNT
                 SE AND S RAE12B29E38 SLP127 P0000 T02500217 =
2016-07-01 18:06 METAR KPHF 012206Z AUTO 09005KT 10SM -RA SCT033 BKN044 BKN055 26/23 A2992 RMK
                 AO2 LTG DSNT SE AND S P0000 T02560228 =
2016-07-01 17:54 METAR KPHF 012154Z AUTO 00000KT 10SM VCTS -RA SCT044 OVC055 25/22 A2992 RMK AO2
                 LTG DSNT SE AND S RAB35 SLP132 P0000 T02500222 =
2016-07-01 17:51 METAR KPHF 012151Z AUTO 00000KT 10SM VCTS -RA BKN044 OVC055 25/22 A2992 RMK AO2
                 LTG DSNT SE AND S RAB35 P0000 =
2016-07-01 16:54 METAR KPHF 012054Z AUTO 00000KT 10SM FEW080 FEW095 26/22 A2993 RMK AO2 LTG DSNT
                 ALQDS RAE03 TSE03 SLP133 P0000 60011 T02560217 53003 =
2016-07-01 16:30 METAR KPHF 012030Z AUTO VRB04KT 10SM CLR 26/22 A2992 RMK AO2 LTG DSNT ALQDS
                 RAE03 TSE03 P0000 T02560217 =
2016-07-01 16:09 METAR KPHF 012009Z AUTO 35004KT 10SM VCTS FEW070 FEW095 BKN120 23/22 A2993 RMK
                 AO2 LTG DSNT ALQDS RAE03 TSE03 P0000 T02330217 =
2016-07-01 15:54 METAR KPHF 011954Z AUTO 22007KT 10SM -TSRA FEW027 SCT050 BKN120 23/21 A2992 RMK
                 AO2 WSHFT 1921 LTG DSNT ALQDS RAB04 TSB11 SLP131 P0009 T02280206 =
2016-07-01 15:49 METAR KPHF 011949Z AUTO 33003KT 6SM -TSRA BR FEW024 SCT050 BKN075 23/21 A2991
                 RMK AO2 WSHFT 1921 LTG DSNT ALQDS RAB04 TSB11 P0009 =
2016-07-01 15:37 METAR KPHF 011937Z AUTO 18011KT 2 1/2SM +TSRA BR FEW025 BKN055 OVC095 23/22
                 A2992 =
2016-07-01 15:17 METAR KPHF 011917Z AUTO 32007KT 5SM TSRA BR FEW055 SCT100 BKN120 26/24 A2993 RMK
                 AO2 LTG DSNT ALQDS RAB04 TSB11 P0001 T02560239 =
2016-07-01 14:54 METAR KPHF 011854Z 01004KT 10SM VCTS FEW100 27/24 A2992 RMK AO2 LTG DSNT ALQDS
                 RAB20E38 SLP131 P0002 T02720244 =
2016-07-01 14:20 METAR KPHF 011820Z 25010KT 5SM VCTS -RA SCT031 SCT070 BKN110 29/24 A2993 RMK AO2
                 LTG DSNT ALQDS RAB20 P0001 T02890239 =
2016-07-01 13:54 METAR KPHF 011754Z 20008KT 10SM SCT028 SCT035 31/24 A2993 RMK AO2 LTG DSNT W-N
                 SLP133 T03060239 10306 20250 58019 =
2016-07-01 13:19 METAR KPHF 011719Z VRB05KT 10SM FEW025 SCT030 29/24 A2995 RMK AO2 T02940239 =
2016-07-01 12:54 METAR KPHF 011654Z 21008KT 10SM BKN022 29/24 A2996 RMK AO2 SLP144 T02940244 =
2016-07-01 12:44 METAR KPHF 011644Z 19009KT 10SM BKN022 BKN028 29/24 A2996 RMK AO2 T02940244 =
2016-07-01 11:54 METAR KPHF 011554Z 22007KT 10SM FEW018 29/24 A2997 RMK AO2 SLP146 T02890244 =
2016-07-01 10:54 METAR KPHF 011454Z 22007KT 10SM FEW013 28/24 A2998 RMK AO2 SLP153 T02780244
                 56002 =
2016-07-01 09:54 METAR KPHF 011354Z 21008KT 10SM BKN010 27/24 A2998 RMK AO2 SLP153 T02670239 =
2016-07-01 08:54 METAR KPHF 011254Z 20005KT 10SM CLR 26/23 A2999 RMK AO2 SLP154 T02610228 =
2016-07-01 07:54 METAR KPHF 011154Z 21007KT 10SM FEW060 25/23 A2999 RMK AO2 SLP155 70011
                 T02500233 10250 20211 51005 =
2016-07-01 06:54 METAR KPHF 011054Z 21005KT 10SM CLR 24/23 A2999 RMK AO2 SLP154 T02390233 =
2016-07-01 05:54 METAR KPHF 010954Z 21006KT 10SM FEW120 23/23 A2998 RMK AO2 SLP152 T02330228 =
2016-07-01 04:54 METAR KPHF 010854Z 20003KT 10SM CLR 22/22 A2997 RMK AO2 SLP149 T02220217 56004 =
2016-07-01 03:54 METAR KPHF 010754Z 00000KT 10SM CLR 22/21 A2998 RMK AO2 SLP151 T02220211 =
2016-07-01 01:54 METAR KPHF 010554Z 00000KT 3SM BR CLR 21/21 A2999 RMK AO2 SLP154 60011 T02110211
                 10250 20211 58015 =
2016-07-01 01:22 METAR KPHF 010522Z 00000KT 3SM BR CLR 22/22 A3000 RMK AO2 T02170217 =
2016-07-01 01:14 METAR KPHF 010514Z 00000KT 1 3/4SM BR CLR 22/21 A3000 RMK AO2 T02170211 =
2016-07-01 00:54 METAR KPHF 010454Z 00000KT 10SM CLR 22/21 A3000 RMK AO2 SLP159 T02170211
                 402780194 =
2016-06-30 23:54 METAR KPHF 010354Z 00000KT 10SM CLR 22/21 A3002 RMK AO2 RAE06 SLP165 P0000
                 T02170211 =
2016-06-30 22:54 METAR KPHF 010254Z 12003KT 10SM -RA BKN100 22/21 A3003 RMK AO2 LTG DSNT NE
                 TSB0159E14 SLP168 P0004 60011 T02170211 50008 =
2016-06-30 22:50 METAR KPHF 010250Z 12003KT 10SM -RA BKN110 22/21 A3003 RMK AO2 LTG DSNT NE
                 TSB0159E14 P0004 =
2016-06-30 22:20 METAR KPHF 010220Z AUTO 15005KT 5SM VCTS RA BR FEW014 BKN031 OVC120 22/21 A3003
                 RMK AO2 LTG DSNT N TSB0159E14 P0004 T02220211 =
2016-06-30 22:05 METAR KPHF 010205Z AUTO 20013G18KT 6SM TSRA BR SCT026 BKN036 OVC110 24/22 A3004
                 RMK AO2 LTG DSNT ALQDS TSB0159 P0001 T02390222 =

Support USWX by starting your Amazon purchase here.